sensor_id;sensor_type;location;lat;lon;timestamp;P1;durP1;ratioP1;P2;durP2;ratioP2
77206;SDS011;66190;50.708;7.906;2023-11-19T00:00:05;5.03;;;1.30;;
77206;SDS011;66190;50.708;7.906;2023-11-19T00:02:36;5.15;;;1.42;;
77206;SDS011;66190;50.708;7.906;2023-11-19T00:05:01;4.28;;;1.08;;
77206;SDS011;66190;50.708;7.906;2023-11-19T00:07:27;5.03;;;1.42;;
77206;SDS011;66190;50.708;7.906;2023-11-19T00:09:52;4.83;;;1.00;;
77206;SDS011;66190;50.708;7.906;2023-11-19T00:12:20;4.78;;;1.23;;
77206;SDS011;66190;50.708;7.906;2023-11-19T00:14:45;4.23;;;0.93;;
77206;SDS011;66190;50.708;7.906;2023-11-19T00:17:11;4.75;;;1.17;;
77206;SDS011;66190;50.708;7.906;2023-11-19T00:19:36;4.90;;;1.60;;
77206;SDS011;66190;50.708;7.906;2023-11-19T00:22:02;4.83;;;1.30;;
77206;SDS011;66190;50.708;7.906;2023-11-19T00:24:28;5.63;;;1.20;;
77206;SDS011;66190;50.708;7.906;2023-11-19T00:26:53;3.58;;;0.75;;
77206;SDS011;66190;50.708;7.906;2023-11-19T00:29:19;4.00;;;1.13;;
77206;SDS011;66190;50.708;7.906;2023-11-19T00:31:45;4.07;;;1.08;;
77206;SDS011;66190;50.708;7.906;2023-11-19T00:34:10;4.37;;;1.00;;
77206;SDS011;66190;50.708;7.906;2023-11-19T00:36:36;3.75;;;1.10;;
77206;SDS011;66190;50.708;7.906;2023-11-19T00:39:01;3.83;;;1.03;;
77206;SDS011;66190;50.708;7.906;2023-11-19T00:41:27;4.37;;;0.97;;
77206;SDS011;66190;50.708;7.906;2023-11-19T00:43:52;5.00;;;0.90;;
77206;SDS011;66190;50.708;7.906;2023-11-19T00:46:17;7.30;;;0.90;;
77206;SDS011;66190;50.708;7.906;2023-11-19T00:48:43;4.63;;;1.13;;
77206;SDS011;66190;50.708;7.906;2023-11-19T00:51:08;4.27;;;0.90;;
77206;SDS011;66190;50.708;7.906;2023-11-19T00:53:37;3.30;;;0.70;;
77206;SDS011;66190;50.708;7.906;2023-11-19T00:56:02;4.20;;;0.90;;
77206;SDS011;66190;50.708;7.906;2023-11-19T00:58:27;3.70;;;0.80;;
77206;SDS011;66190;50.708;7.906;2023-11-19T01:00:53;4.37;;;0.83;;
77206;SDS011;66190;50.708;7.906;2023-11-19T01:03:18;3.77;;;0.90;;
77206;SDS011;66190;50.708;7.906;2023-11-19T01:05:44;3.50;;;0.70;;
77206;SDS011;66190;50.708;7.906;2023-11-19T01:08:11;3.97;;;0.90;;
77206;SDS011;66190;50.708;7.906;2023-11-19T01:10:37;3.97;;;0.82;;
77206;SDS011;66190;50.708;7.906;2023-11-19T01:13:02;6.43;;;1.50;;
77206;SDS011;66190;50.708;7.906;2023-11-19T01:15:30;4.88;;;1.30;;
77206;SDS011;66190;50.708;7.906;2023-11-19T01:17:56;4.10;;;0.97;;
77206;SDS011;66190;50.708;7.906;2023-11-19T01:20:22;3.63;;;0.88;;
77206;SDS011;66190;50.708;7.906;2023-11-19T01:22:47;3.90;;;0.80;;
77206;SDS011;66190;50.708;7.906;2023-11-19T01:25:13;4.22;;;0.80;;
77206;SDS011;66190;50.708;7.906;2023-11-19T01:27:39;4.17;;;0.80;;
77206;SDS011;66190;50.708;7.906;2023-11-19T01:30:04;4.60;;;1.00;;
77206;SDS011;66190;50.708;7.906;2023-11-19T01:32:31;4.97;;;1.10;;
77206;SDS011;66190;50.708;7.906;2023-11-19T01:34:56;4.53;;;0.87;;
77206;SDS011;66190;50.708;7.906;2023-11-19T01:37:22;4.18;;;0.85;;
77206;SDS011;66190;50.708;7.906;2023-11-19T01:39:47;3.83;;;0.70;;
77206;SDS011;66190;50.708;7.906;2023-11-19T01:42:13;4.13;;;1.02;;
77206;SDS011;66190;50.708;7.906;2023-11-19T01:44:39;4.63;;;1.23;;
77206;SDS011;66190;50.708;7.906;2023-11-19T01:47:04;3.67;;;0.90;;
77206;SDS011;66190;50.708;7.906;2023-11-19T01:49:31;3.35;;;0.77;;
77206;SDS011;66190;50.708;7.906;2023-11-19T01:51:57;4.87;;;1.00;;
77206;SDS011;66190;50.708;7.906;2023-11-19T01:54:24;4.10;;;0.95;;
77206;SDS011;66190;50.708;7.906;2023-11-19T01:56:50;3.70;;;0.80;;
77206;SDS011;66190;50.708;7.906;2023-11-19T01:59:18;3.83;;;0.80;;
77206;SDS011;66190;50.708;7.906;2023-11-19T02:01:51;3.38;;;0.80;;
77206;SDS011;66190;50.708;7.906;2023-11-19T02:04:16;3.30;;;0.90;;
77206;SDS011;66190;50.708;7.906;2023-11-19T02:06:42;3.00;;;0.70;;
77206;SDS011;66190;50.708;7.906;2023-11-19T02:09:08;2.78;;;0.70;;
77206;SDS011;66190;50.708;7.906;2023-11-19T02:11:34;3.55;;;0.77;;
77206;SDS011;66190;50.708;7.906;2023-11-19T02:14:00;3.43;;;0.80;;
77206;SDS011;66190;50.708;7.906;2023-11-19T02:16:27;3.30;;;0.73;;
77206;SDS011;66190;50.708;7.906;2023-11-19T02:18:53;4.03;;;0.98;;
77206;SDS011;66190;50.708;7.906;2023-11-19T02:21:19;5.53;;;0.90;;
77206;SDS011;66190;50.708;7.906;2023-11-19T02:23:44;3.63;;;0.77;;
77206;SDS011;66190;50.708;7.906;2023-11-19T02:28:43;3.38;;;0.70;;
77206;SDS011;66190;50.708;7.906;2023-11-19T02:31:08;3.85;;;0.85;;
77206;SDS011;66190;50.708;7.906;2023-11-19T02:33:35;2.43;;;0.60;;
77206;SDS011;66190;50.708;7.906;2023-11-19T02:36:01;4.32;;;0.75;;
77206;SDS011;66190;50.708;7.906;2023-11-19T02:38:28;7.57;;;1.58;;
77206;SDS011;66190;50.708;7.906;2023-11-19T02:40:55;2.92;;;0.68;;
77206;SDS011;66190;50.708;7.906;2023-11-19T02:43:21;2.40;;;0.52;;
77206;SDS011;66190;50.708;7.906;2023-11-19T02:45:47;4.95;;;0.68;;
77206;SDS011;66190;50.708;7.906;2023-11-19T02:48:12;3.13;;;0.80;;
77206;SDS011;66190;50.708;7.906;2023-11-19T02:50:39;4.07;;;0.82;;
77206;SDS011;66190;50.708;7.906;2023-11-19T02:53:04;5.35;;;1.00;;
77206;SDS011;66190;50.708;7.906;2023-11-19T02:55:31;3.22;;;0.68;;
77206;SDS011;66190;50.708;7.906;2023-11-19T02:58:02;4.38;;;0.90;;
77206;SDS011;66190;50.708;7.906;2023-11-19T03:00:33;2.35;;;0.50;;
77206;SDS011;66190;50.708;7.906;2023-11-19T03:03:02;3.90;;;0.90;;
77206;SDS011;66190;50.708;7.906;2023-11-19T03:05:42;6.30;;;1.40;;
77206;SDS011;66190;50.708;7.906;2023-11-19T03:08:09;3.10;;;0.90;;
77206;SDS011;66190;50.708;7.906;2023-11-19T03:10:35;2.88;;;0.80;;
77206;SDS011;66190;50.708;7.906;2023-11-19T03:13:00;3.27;;;0.70;;
77206;SDS011;66190;50.708;7.906;2023-11-19T03:15:27;2.53;;;0.50;;
77206;SDS011;66190;50.708;7.906;2023-11-19T03:17:52;3.73;;;0.90;;
77206;SDS011;66190;50.708;7.906;2023-11-19T03:20:19;3.25;;;0.77;;
77206;SDS011;66190;50.708;7.906;2023-11-19T03:22:45;2.57;;;0.50;;
77206;SDS011;66190;50.708;7.906;2023-11-19T03:25:11;2.60;;;0.60;;
77206;SDS011;66190;50.708;7.906;2023-11-19T03:27:37;1.83;;;0.50;;
77206;SDS011;66190;50.708;7.906;2023-11-19T03:30:11;2.90;;;0.60;;
77206;SDS011;66190;50.708;7.906;2023-11-19T03:32:37;2.90;;;0.80;;
77206;SDS011;66190;50.708;7.906;2023-11-19T03:35:04;2.50;;;0.60;;
77206;SDS011;66190;50.708;7.906;2023-11-19T03:37:32;2.10;;;0.50;;
77206;SDS011;66190;50.708;7.906;2023-11-19T03:39:57;2.77;;;0.50;;
77206;SDS011;66190;50.708;7.906;2023-11-19T03:42:27;3.65;;;0.70;;
77206;SDS011;66190;50.708;7.906;2023-11-19T03:44:54;4.95;;;0.60;;
77206;SDS011;66190;50.708;7.906;2023-11-19T03:47:20;2.97;;;0.60;;
77206;SDS011;66190;50.708;7.906;2023-11-19T03:49:49;3.03;;;0.60;;
77206;SDS011;66190;50.708;7.906;2023-11-19T03:52:15;3.85;;;0.90;;
77206;SDS011;66190;50.708;7.906;2023-11-19T03:54:41;4.55;;;0.90;;
77206;SDS011;66190;50.708;7.906;2023-11-19T03:57:06;3.23;;;0.57;;
77206;SDS011;66190;50.708;7.906;2023-11-19T03:59:32;2.37;;;0.50;;
77206;SDS011;66190;50.708;7.906;2023-11-19T04:01:58;4.45;;;0.60;;
77206;SDS011;66190;50.708;7.906;2023-11-19T04:04:25;4.07;;;0.70;;
77206;SDS011;66190;50.708;7.906;2023-11-19T04:06:52;5.82;;;1.13;;
77206;SDS011;66190;50.708;7.906;2023-11-19T04:09:17;4.77;;;1.77;;
77206;SDS011;66190;50.708;7.906;2023-11-19T04:11:43;3.70;;;0.80;;
77206;SDS011;66190;50.708;7.906;2023-11-19T04:14:08;5.83;;;0.73;;
77206;SDS011;66190;50.708;7.906;2023-11-19T04:16:34;2.75;;;0.50;;
77206;SDS011;66190;50.708;7.906;2023-11-19T04:19:00;5.40;;;0.87;;
77206;SDS011;66190;50.708;7.906;2023-11-19T04:21:26;3.70;;;0.70;;
77206;SDS011;66190;50.708;7.906;2023-11-19T04:23:52;5.27;;;1.10;;
77206;SDS011;66190;50.708;7.906;2023-11-19T04:26:17;3.20;;;0.60;;
77206;SDS011;66190;50.708;7.906;2023-11-19T04:28:42;3.30;;;0.60;;
77206;SDS011;66190;50.708;7.906;2023-11-19T04:31:08;6.50;;;0.68;;
77206;SDS011;66190;50.708;7.906;2023-11-19T04:33:34;3.40;;;0.80;;
77206;SDS011;66190;50.708;7.906;2023-11-19T04:35:59;4.97;;;0.90;;
77206;SDS011;66190;50.708;7.906;2023-11-19T04:38:25;5.03;;;1.00;;
77206;SDS011;66190;50.708;7.906;2023-11-19T04:40:51;6.28;;;0.70;;
77206;SDS011;66190;50.708;7.906;2023-11-19T04:43:17;5.03;;;1.23;;
77206;SDS011;66190;50.708;7.906;2023-11-19T04:45:42;5.27;;;0.60;;
77206;SDS011;66190;50.708;7.906;2023-11-19T04:48:08;4.33;;;0.50;;
77206;SDS011;66190;50.708;7.906;2023-11-19T04:50:34;3.30;;;0.50;;
77206;SDS011;66190;50.708;7.906;2023-11-19T04:52:59;3.63;;;0.50;;
77206;SDS011;66190;50.708;7.906;2023-11-19T04:55:25;4.90;;;0.70;;
77206;SDS011;66190;50.708;7.906;2023-11-19T04:57:50;6.10;;;1.10;;
77206;SDS011;66190;50.708;7.906;2023-11-19T05:00:15;3.87;;;0.60;;
77206;SDS011;66190;50.708;7.906;2023-11-19T05:02:41;5.50;;;1.20;;
77206;SDS011;66190;50.708;7.906;2023-11-19T05:05:06;3.03;;;0.63;;
77206;SDS011;66190;50.708;7.906;2023-11-19T05:07:32;3.30;;;0.60;;
77206;SDS011;66190;50.708;7.906;2023-11-19T05:09:57;3.67;;;0.60;;
77206;SDS011;66190;50.708;7.906;2023-11-19T05:12:23;4.07;;;0.60;;
77206;SDS011;66190;50.708;7.906;2023-11-19T05:14:49;3.60;;;0.60;;
77206;SDS011;66190;50.708;7.906;2023-11-19T05:17:18;6.60;;;0.70;;
77206;SDS011;66190;50.708;7.906;2023-11-19T05:19:44;5.38;;;0.80;;
77206;SDS011;66190;50.708;7.906;2023-11-19T05:22:10;2.97;;;0.67;;
77206;SDS011;66190;50.708;7.906;2023-11-19T05:24:35;5.47;;;0.67;;
77206;SDS011;66190;50.708;7.906;2023-11-19T05:27:01;3.28;;;0.70;;
77206;SDS011;66190;50.708;7.906;2023-11-19T05:29:26;2.40;;;0.60;;
77206;SDS011;66190;50.708;7.906;2023-11-19T05:31:52;4.78;;;0.70;;
77206;SDS011;66190;50.708;7.906;2023-11-19T05:34:17;2.17;;;0.57;;
77206;SDS011;66190;50.708;7.906;2023-11-19T05:36:43;2.90;;;0.60;;
77206;SDS011;66190;50.708;7.906;2023-11-19T05:39:08;3.53;;;0.80;;
77206;SDS011;66190;50.708;7.906;2023-11-19T05:41:34;4.10;;;0.60;;
77206;SDS011;66190;50.708;7.906;2023-11-19T05:43:59;5.22;;;0.70;;
77206;SDS011;66190;50.708;7.906;2023-11-19T05:46:25;3.20;;;0.70;;
77206;SDS011;66190;50.708;7.906;2023-11-19T05:48:52;5.10;;;0.80;;
77206;SDS011;66190;50.708;7.906;2023-11-19T05:51:17;3.33;;;0.70;;
77206;SDS011;66190;50.708;7.906;2023-11-19T05:53:43;4.57;;;0.80;;
77206;SDS011;66190;50.708;7.906;2023-11-19T05:56:10;4.17;;;0.70;;
77206;SDS011;66190;50.708;7.906;2023-11-19T05:58:36;4.47;;;0.77;;
77206;SDS011;66190;50.708;7.906;2023-11-19T06:01:02;3.10;;;0.73;;
77206;SDS011;66190;50.708;7.906;2023-11-19T06:03:28;3.53;;;0.70;;
77206;SDS011;66190;50.708;7.906;2023-11-19T06:05:54;5.33;;;0.70;;
77206;SDS011;66190;50.708;7.906;2023-11-19T06:08:19;6.10;;;0.85;;
77206;SDS011;66190;50.708;7.906;2023-11-19T06:10:45;4.03;;;0.60;;
77206;SDS011;66190;50.708;7.906;2023-11-19T06:13:11;4.88;;;0.80;;
77206;SDS011;66190;50.708;7.906;2023-11-19T06:15:43;2.58;;;0.60;;
77206;SDS011;66190;50.708;7.906;2023-11-19T06:18:08;5.33;;;1.37;;
77206;SDS011;66190;50.708;7.906;2023-11-19T06:20:34;4.28;;;0.70;;
77206;SDS011;66190;50.708;7.906;2023-11-19T06:23:00;4.27;;;0.60;;
77206;SDS011;66190;50.708;7.906;2023-11-19T06:25:25;2.60;;;0.60;;
77206;SDS011;66190;50.708;7.906;2023-11-19T06:27:51;2.87;;;0.60;;
77206;SDS011;66190;50.708;7.906;2023-11-19T06:30:17;3.80;;;0.70;;
77206;SDS011;66190;50.708;7.906;2023-11-19T06:32:43;3.38;;;0.70;;
77206;SDS011;66190;50.708;7.906;2023-11-19T06:35:09;6.10;;;0.93;;
77206;SDS011;66190;50.708;7.906;2023-11-19T06:37:38;5.28;;;0.70;;
77206;SDS011;66190;50.708;7.906;2023-11-19T06:40:04;7.95;;;0.98;;
77206;SDS011;66190;50.708;7.906;2023-11-19T06:42:30;5.63;;;0.80;;
77206;SDS011;66190;50.708;7.906;2023-11-19T06:44:56;4.18;;;0.90;;
77206;SDS011;66190;50.708;7.906;2023-11-19T06:47:22;6.57;;;0.83;;
77206;SDS011;66190;50.708;7.906;2023-11-19T06:49:52;4.88;;;1.00;;
77206;SDS011;66190;50.708;7.906;2023-11-19T06:52:17;7.93;;;0.90;;
77206;SDS011;66190;50.708;7.906;2023-11-19T06:54:43;8.65;;;2.58;;
77206;SDS011;66190;50.708;7.906;2023-11-19T06:57:08;7.10;;;2.38;;
77206;SDS011;66190;50.708;7.906;2023-11-19T06:59:34;8.03;;;3.17;;
77206;SDS011;66190;50.708;7.906;2023-11-19T07:02:00;17.10;;;8.55;;
77206;SDS011;66190;50.708;7.906;2023-11-19T07:04:25;16.05;;;8.32;;
77206;SDS011;66190;50.708;7.906;2023-11-19T07:06:50;14.30;;;5.57;;
77206;SDS011;66190;50.708;7.906;2023-11-19T07:09:18;18.25;;;7.82;;
77206;SDS011;66190;50.708;7.906;2023-11-19T07:11:43;9.83;;;4.10;;
77206;SDS011;66190;50.708;7.906;2023-11-19T07:14:10;12.27;;;3.15;;
77206;SDS011;66190;50.708;7.906;2023-11-19T07:16:36;12.25;;;5.18;;
77206;SDS011;66190;50.708;7.906;2023-11-19T07:19:04;11.45;;;3.88;;
77206;SDS011;66190;50.708;7.906;2023-11-19T07:21:32;12.02;;;4.72;;
77206;SDS011;66190;50.708;7.906;2023-11-19T07:23:58;13.95;;;6.20;;
77206;SDS011;66190;50.708;7.906;2023-11-19T07:26:24;11.02;;;3.00;;
77206;SDS011;66190;50.708;7.906;2023-11-19T07:28:50;12.02;;;5.63;;
77206;SDS011;66190;50.708;7.906;2023-11-19T07:31:16;15.25;;;7.18;;
77206;SDS011;66190;50.708;7.906;2023-11-19T07:33:44;16.90;;;9.65;;
77206;SDS011;66190;50.708;7.906;2023-11-19T07:36:11;11.38;;;3.00;;
77206;SDS011;66190;50.708;7.906;2023-11-19T07:38:37;7.72;;;2.30;;
77206;SDS011;66190;50.708;7.906;2023-11-19T07:41:03;23.48;;;10.82;;
77206;SDS011;66190;50.708;7.906;2023-11-19T07:43:30;14.40;;;4.90;;
77206;SDS011;66190;50.708;7.906;2023-11-19T07:45:55;7.37;;;2.13;;
77206;SDS011;66190;50.708;7.906;2023-11-19T07:48:21;9.40;;;1.50;;
77206;SDS011;66190;50.708;7.906;2023-11-19T07:50:48;13.95;;;1.92;;
77206;SDS011;66190;50.708;7.906;2023-11-19T07:53:17;12.82;;;2.13;;
77206;SDS011;66190;50.708;7.906;2023-11-19T07:55:43;10.57;;;2.30;;
77206;SDS011;66190;50.708;7.906;2023-11-19T07:58:09;7.88;;;1.95;;
77206;SDS011;66190;50.708;7.906;2023-11-19T08:00:35;8.60;;;1.58;;
77206;SDS011;66190;50.708;7.906;2023-11-19T08:03:01;7.23;;;1.53;;
77206;SDS011;66190;50.708;7.906;2023-11-19T08:05:26;7.37;;;1.47;;
77206;SDS011;66190;50.708;7.906;2023-11-19T08:07:51;9.65;;;2.05;;
77206;SDS011;66190;50.708;7.906;2023-11-19T08:10:18;8.10;;;1.52;;
77206;SDS011;66190;50.708;7.906;2023-11-19T08:12:44;10.48;;;1.85;;
77206;SDS011;66190;50.708;7.906;2023-11-19T08:15:09;12.57;;;2.87;;
77206;SDS011;66190;50.708;7.906;2023-11-19T08:17:35;9.50;;;1.85;;
77206;SDS011;66190;50.708;7.906;2023-11-19T08:20:01;10.90;;;1.70;;
77206;SDS011;66190;50.708;7.906;2023-11-19T08:22:26;9.65;;;1.63;;
77206;SDS011;66190;50.708;7.906;2023-11-19T08:24:52;8.30;;;1.73;;
77206;SDS011;66190;50.708;7.906;2023-11-19T08:27:17;7.67;;;1.30;;
77206;SDS011;66190;50.708;7.906;2023-11-19T08:29:43;9.73;;;1.70;;
77206;SDS011;66190;50.708;7.906;2023-11-19T08:32:08;9.70;;;1.83;;
77206;SDS011;66190;50.708;7.906;2023-11-19T08:34:33;8.20;;;1.80;;
77206;SDS011;66190;50.708;7.906;2023-11-19T08:36:59;11.90;;;1.45;;
77206;SDS011;66190;50.708;7.906;2023-11-19T08:39:25;8.40;;;1.90;;
77206;SDS011;66190;50.708;7.906;2023-11-19T08:41:50;9.65;;;2.22;;
77206;SDS011;66190;50.708;7.906;2023-11-19T08:44:16;7.45;;;1.67;;
77206;SDS011;66190;50.708;7.906;2023-11-19T08:46:48;7.23;;;1.63;;
77206;SDS011;66190;50.708;7.906;2023-11-19T08:49:14;10.25;;;1.95;;
77206;SDS011;66190;50.708;7.906;2023-11-19T08:51:40;9.52;;;1.75;;
77206;SDS011;66190;50.708;7.906;2023-11-19T08:54:06;8.40;;;1.60;;
77206;SDS011;66190;50.708;7.906;2023-11-19T08:56:32;9.90;;;2.03;;
77206;SDS011;66190;50.708;7.906;2023-11-19T08:58:59;11.40;;;1.70;;
77206;SDS011;66190;50.708;7.906;2023-11-19T09:01:25;8.20;;;2.03;;
77206;SDS011;66190;50.708;7.906;2023-11-19T09:03:51;9.97;;;2.13;;
77206;SDS011;66190;50.708;7.906;2023-11-19T09:06:17;10.75;;;2.15;;
77206;SDS011;66190;50.708;7.906;2023-11-19T09:08:42;11.73;;;1.67;;
77206;SDS011;66190;50.708;7.906;2023-11-19T09:11:08;11.77;;;1.75;;
77206;SDS011;66190;50.708;7.906;2023-11-19T09:13:34;7.22;;;2.13;;
77206;SDS011;66190;50.708;7.906;2023-11-19T09:16:00;15.00;;;2.78;;
77206;SDS011;66190;50.708;7.906;2023-11-19T09:18:28;9.90;;;2.47;;
77206;SDS011;66190;50.708;7.906;2023-11-19T09:20:54;12.43;;;1.65;;
77206;SDS011;66190;50.708;7.906;2023-11-19T09:23:20;12.70;;;2.13;;
77206;SDS011;66190;50.708;7.906;2023-11-19T09:25:45;9.63;;;2.50;;
77206;SDS011;66190;50.708;7.906;2023-11-19T09:28:10;10.77;;;3.00;;
77206;SDS011;66190;50.708;7.906;2023-11-19T09:30:36;13.17;;;3.00;;
77206;SDS011;66190;50.708;7.906;2023-11-19T09:33:01;10.30;;;2.10;;
77206;SDS011;66190;50.708;7.906;2023-11-19T09:35:27;11.70;;;1.95;;
77206;SDS011;66190;50.708;7.906;2023-11-19T09:37:52;12.03;;;1.80;;
77206;SDS011;66190;50.708;7.906;2023-11-19T09:40:18;7.97;;;2.30;;
77206;SDS011;66190;50.708;7.906;2023-11-19T09:42:43;10.82;;;2.30;;
77206;SDS011;66190;50.708;7.906;2023-11-19T09:45:13;9.50;;;1.70;;
77206;SDS011;66190;50.708;7.906;2023-11-19T09:47:44;15.10;;;1.92;;
77206;SDS011;66190;50.708;7.906;2023-11-19T09:50:17;13.63;;;2.03;;
77206;SDS011;66190;50.708;7.906;2023-11-19T09:52:44;14.82;;;3.53;;
77206;SDS011;66190;50.708;7.906;2023-11-19T09:55:25;13.07;;;2.65;;
77206;SDS011;66190;50.708;7.906;2023-11-19T09:57:50;12.98;;;2.53;;
77206;SDS011;66190;50.708;7.906;2023-11-19T10:00:17;15.85;;;2.83;;
77206;SDS011;66190;50.708;7.906;2023-11-19T10:02:45;15.52;;;4.18;;
77206;SDS011;66190;50.708;7.906;2023-11-19T10:05:12;16.13;;;2.80;;
77206;SDS011;66190;50.708;7.906;2023-11-19T10:07:39;11.32;;;2.10;;
77206;SDS011;66190;50.708;7.906;2023-11-19T10:10:05;9.43;;;2.13;;
77206;SDS011;66190;50.708;7.906;2023-11-19T10:12:31;15.40;;;1.95;;
77206;SDS011;66190;50.708;7.906;2023-11-19T10:14:57;13.30;;;2.43;;
77206;SDS011;66190;50.708;7.906;2023-11-19T10:17:32;10.30;;;1.55;;
77206;SDS011;66190;50.708;7.906;2023-11-19T10:19:58;13.35;;;2.10;;
77206;SDS011;66190;50.708;7.906;2023-11-19T10:22:24;8.27;;;1.55;;
77206;SDS011;66190;50.708;7.906;2023-11-19T10:24:50;10.80;;;1.70;;
77206;SDS011;66190;50.708;7.906;2023-11-19T10:27:15;12.23;;;2.30;;
77206;SDS011;66190;50.708;7.906;2023-11-19T10:29:43;10.63;;;1.97;;
77206;SDS011;66190;50.708;7.906;2023-11-19T10:32:10;13.15;;;2.30;;
77206;SDS011;66190;50.708;7.906;2023-11-19T10:34:38;14.50;;;2.60;;
77206;SDS011;66190;50.708;7.906;2023-11-19T10:37:06;13.38;;;2.70;;
77206;SDS011;66190;50.708;7.906;2023-11-19T10:39:51;12.55;;;2.42;;
77206;SDS011;66190;50.708;7.906;2023-11-19T10:42:20;18.53;;;3.87;;
77206;SDS011;66190;50.708;7.906;2023-11-19T10:44:46;10.82;;;2.50;;
77206;SDS011;66190;50.708;7.906;2023-11-19T10:47:13;10.30;;;2.77;;
77206;SDS011;66190;50.708;7.906;2023-11-19T10:49:40;13.20;;;2.63;;
77206;SDS011;66190;50.708;7.906;2023-11-19T10:52:06;11.77;;;2.10;;
77206;SDS011;66190;50.708;7.906;2023-11-19T10:54:34;14.85;;;2.20;;
77206;SDS011;66190;50.708;7.906;2023-11-19T10:56:59;9.77;;;2.33;;
77206;SDS011;66190;50.708;7.906;2023-11-19T10:59:30;14.98;;;2.20;;
77206;SDS011;66190;50.708;7.906;2023-11-19T11:01:59;17.40;;;2.25;;
77206;SDS011;66190;50.708;7.906;2023-11-19T11:04:30;13.20;;;1.63;;
77206;SDS011;66190;50.708;7.906;2023-11-19T11:07:00;15.07;;;2.10;;
77206;SDS011;66190;50.708;7.906;2023-11-19T11:09:27;13.15;;;2.33;;
77206;SDS011;66190;50.708;7.906;2023-11-19T11:11:53;14.88;;;2.88;;
77206;SDS011;66190;50.708;7.906;2023-11-19T11:14:20;15.10;;;2.30;;
77206;SDS011;66190;50.708;7.906;2023-11-19T11:16:48;10.70;;;2.13;;
77206;SDS011;66190;50.708;7.906;2023-11-19T11:19:15;12.02;;;1.92;;
77206;SDS011;66190;50.708;7.906;2023-11-19T11:21:42;13.65;;;2.28;;
77206;SDS011;66190;50.708;7.906;2023-11-19T11:30:35;12.70;;;1.67;;
77206;SDS011;66190;50.708;7.906;2023-11-19T11:33:25;10.70;;;2.05;;
77206;SDS011;66190;50.708;7.906;2023-11-19T11:36:21;13.98;;;2.00;;
77206;SDS011;66190;50.708;7.906;2023-11-19T11:38:48;9.38;;;1.10;;
77206;SDS011;66190;50.708;7.906;2023-11-19T11:41:15;12.25;;;2.40;;
77206;SDS011;66190;50.708;7.906;2023-11-19T11:43:45;10.27;;;1.90;;
77206;SDS011;66190;50.708;7.906;2023-11-19T11:46:53;10.45;;;2.00;;
77206;SDS011;66190;50.708;7.906;2023-11-19T11:49:02;9.70;;;1.98;;
77206;SDS011;66190;50.708;7.906;2023-11-19T11:54:10;13.50;;;2.78;;
77206;SDS011;66190;50.708;7.906;2023-11-19T11:56:39;13.03;;;1.80;;
77206;SDS011;66190;50.708;7.906;2023-11-19T11:59:07;13.70;;;2.50;;
77206;SDS011;66190;50.708;7.906;2023-11-19T12:01:57;15.13;;;2.33;;
77206;SDS011;66190;50.708;7.906;2023-11-19T12:04:28;15.30;;;3.05;;
77206;SDS011;66190;50.708;7.906;2023-11-19T12:09:36;16.40;;;3.00;;
77206;SDS011;66190;50.708;7.906;2023-11-19T12:19:59;15.38;;;3.33;;
77206;SDS011;66190;50.708;7.906;2023-11-19T12:22:31;16.23;;;3.40;;
77206;SDS011;66190;50.708;7.906;2023-11-19T12:24:57;14.43;;;3.27;;
77206;SDS011;66190;50.708;7.906;2023-11-19T12:27:23;16.10;;;3.30;;
77206;SDS011;66190;50.708;7.906;2023-11-19T12:29:49;16.00;;;2.97;;
77206;SDS011;66190;50.708;7.906;2023-11-19T12:32:15;15.73;;;2.97;;
77206;SDS011;66190;50.708;7.906;2023-11-19T12:34:40;12.88;;;2.05;;
77206;SDS011;66190;50.708;7.906;2023-11-19T12:37:06;11.80;;;2.67;;
77206;SDS011;66190;50.708;7.906;2023-11-19T12:39:34;13.90;;;3.10;;
77206;SDS011;66190;50.708;7.906;2023-11-19T12:42:00;11.40;;;1.40;;
77206;SDS011;66190;50.708;7.906;2023-11-19T12:44:26;7.25;;;1.52;;
77206;SDS011;66190;50.708;7.906;2023-11-19T12:47:01;11.93;;;1.40;;
77206;SDS011;66190;50.708;7.906;2023-11-19T12:49:33;8.50;;;1.35;;
77206;SDS011;66190;50.708;7.906;2023-11-19T12:51:59;11.30;;;1.88;;
77206;SDS011;66190;50.708;7.906;2023-11-19T12:54:31;19.60;;;6.13;;
77206;SDS011;66190;50.708;7.906;2023-11-19T12:57:03;14.98;;;4.32;;
77206;SDS011;66190;50.708;7.906;2023-11-19T12:59:30;16.95;;;3.00;;
77206;SDS011;66190;50.708;7.906;2023-11-19T13:01:56;15.18;;;3.22;;
77206;SDS011;66190;50.708;7.906;2023-11-19T13:04:28;19.25;;;4.18;;
77206;SDS011;66190;50.708;7.906;2023-11-19T13:06:58;13.77;;;3.95;;
77206;SDS011;66190;50.708;7.906;2023-11-19T13:09:26;12.70;;;4.32;;
77206;SDS011;66190;50.708;7.906;2023-11-19T13:11:52;16.98;;;4.30;;
77206;SDS011;66190;50.708;7.906;2023-11-19T13:14:20;17.85;;;5.50;;
77206;SDS011;66190;50.708;7.906;2023-11-19T13:16:46;15.23;;;4.07;;
77206;SDS011;66190;50.708;7.906;2023-11-19T13:19:12;17.03;;;6.03;;
77206;SDS011;66190;50.708;7.906;2023-11-19T13:21:38;17.88;;;5.72;;
77206;SDS011;66190;50.708;7.906;2023-11-19T13:24:07;21.42;;;6.72;;
77206;SDS011;66190;50.708;7.906;2023-11-19T13:26:33;17.75;;;5.38;;
77206;SDS011;66190;50.708;7.906;2023-11-19T13:29:00;10.98;;;2.72;;
77206;SDS011;66190;50.708;7.906;2023-11-19T13:31:25;12.93;;;2.65;;
77206;SDS011;66190;50.708;7.906;2023-11-19T13:33:51;11.32;;;2.08;;
77206;SDS011;66190;50.708;7.906;2023-11-19T13:36:17;13.73;;;2.40;;
77206;SDS011;66190;50.708;7.906;2023-11-19T13:38:42;12.73;;;3.00;;
77206;SDS011;66190;50.708;7.906;2023-11-19T13:41:09;12.45;;;1.85;;
77206;SDS011;66190;50.708;7.906;2023-11-19T13:43:36;11.75;;;2.95;;
77206;SDS011;66190;50.708;7.906;2023-11-19T13:46:02;12.95;;;2.78;;
77206;SDS011;66190;50.708;7.906;2023-11-19T13:48:28;11.83;;;2.93;;
77206;SDS011;66190;50.708;7.906;2023-11-19T13:50:54;10.55;;;2.35;;
77206;SDS011;66190;50.708;7.906;2023-11-19T13:53:20;13.82;;;4.20;;
77206;SDS011;66190;50.708;7.906;2023-11-19T13:55:46;14.40;;;3.58;;
77206;SDS011;66190;50.708;7.906;2023-11-19T13:58:12;18.25;;;4.43;;
77206;SDS011;66190;50.708;7.906;2023-11-19T14:00:38;10.13;;;1.50;;
77206;SDS011;66190;50.708;7.906;2023-11-19T14:03:03;11.00;;;1.83;;
77206;SDS011;66190;50.708;7.906;2023-11-19T14:05:29;11.93;;;2.70;;
77206;SDS011;66190;50.708;7.906;2023-11-19T14:07:55;14.55;;;2.30;;
77206;SDS011;66190;50.708;7.906;2023-11-19T14:10:21;12.18;;;3.17;;
77206;SDS011;66190;50.708;7.906;2023-11-19T14:12:47;11.38;;;2.70;;
77206;SDS011;66190;50.708;7.906;2023-11-19T14:15:14;15.50;;;4.47;;
77206;SDS011;66190;50.708;7.906;2023-11-19T14:17:42;12.57;;;5.35;;
77206;SDS011;66190;50.708;7.906;2023-11-19T14:20:08;12.23;;;4.50;;
77206;SDS011;66190;50.708;7.906;2023-11-19T14:22:43;10.88;;;2.40;;
77206;SDS011;66190;50.708;7.906;2023-11-19T14:25:10;11.05;;;2.67;;
77206;SDS011;66190;50.708;7.906;2023-11-19T14:27:39;10.73;;;2.30;;
77206;SDS011;66190;50.708;7.906;2023-11-19T14:30:06;11.32;;;2.17;;
77206;SDS011;66190;50.708;7.906;2023-11-19T14:32:35;10.18;;;1.80;;
77206;SDS011;66190;50.708;7.906;2023-11-19T14:35:00;13.40;;;3.17;;
77206;SDS011;66190;50.708;7.906;2023-11-19T14:37:26;11.90;;;2.28;;
77206;SDS011;66190;50.708;7.906;2023-11-19T14:39:51;12.40;;;3.00;;
77206;SDS011;66190;50.708;7.906;2023-11-19T14:42:18;11.03;;;2.70;;
77206;SDS011;66190;50.708;7.906;2023-11-19T14:44:43;14.30;;;2.83;;
77206;SDS011;66190;50.708;7.906;2023-11-19T14:47:09;12.17;;;2.83;;
77206;SDS011;66190;50.708;7.906;2023-11-19T14:49:35;9.73;;;2.25;;
77206;SDS011;66190;50.708;7.906;2023-11-19T14:52:01;19.50;;;2.42;;
77206;SDS011;66190;50.708;7.906;2023-11-19T14:54:28;13.05;;;2.60;;
77206;SDS011;66190;50.708;7.906;2023-11-19T14:56:53;12.03;;;3.70;;
77206;SDS011;66190;50.708;7.906;2023-11-19T14:59:19;22.40;;;6.80;;
77206;SDS011;66190;50.708;7.906;2023-11-19T15:01:45;27.57;;;7.03;;